Time;durP1;ratioP1;P1;durP2;ratioP2;P2;SDS_P1;SDS_P2;PMS_P1;PMS_P2;Temp;Humidity;BMP_temperature;BMP_pressure;BME280_temperature;BME280_humidity;BME280_pressure;Samples;Min_cycle;Max_cycle;Signal;HPM_P1;HPM_P2
2021/12/20 00:00:50;;;;;;;17.00;12.80;;;5.50;99.90;;;;;;5093838;28;20497;-58
2021/12/20 00:03:17;;;;;;;19.03;13.90;;;5.40;99.90;;;;;;5093749;28;20909;-59
2021/12/20 00:05:44;;;;;;;18.73;14.10;;;5.50;99.90;;;;;;5093521;28;20510;-58
2021/12/20 00:08:13;;;;;;;20.47;14.20;;;5.40;99.90;;;;;;5093812;28;20455;-58
2021/12/20 00:10:40;;;;;;;22.33;15.17;;;5.20;99.90;;;;;;5093397;28;20793;-58
2021/12/20 00:13:07;;;;;;;22.63;15.60;;;5.20;99.90;;;;;;5093149;28;20479;-58
2021/12/20 00:15:35;;;;;;;20.80;13.83;;;5.20;99.90;;;;;;5093874;28;20489;-58
2021/12/20 00:18:02;;;;;;;19.17;13.67;;;5.20;99.90;;;;;;5093294;28;21063;-58
2021/12/20 00:20:30;;;;;;;20.80;14.10;;;5.20;99.90;;;;;;5094030;28;20503;-59
2021/12/20 00:22:57;;;;;;;20.10;15.30;;;5.30;99.90;;;;;;5093717;28;20533;-58
2021/12/20 00:25:25;;;;;;;19.93;12.80;;;5.40;99.90;;;;;;5093532;28;20531;-58
2021/12/20 00:27:53;;;;;;;18.67;13.90;;;5.40;99.90;;;;;;5093306;28;20447;-58
2021/12/20 00:30:22;;;;;;;18.43;12.87;;;5.40;99.90;;;;;;5093062;28;21066;-58
2021/12/20 00:32:49;;;;;;;15.97;12.63;;;5.30;99.90;;;;;;5093294;28;20805;-59
2021/12/20 00:35:19;;;;;;;15.70;13.03;;;5.40;99.90;;;;;;5093284;28;20452;-59
2021/12/20 00:40:33;;;;;;;17.90;14.27;;;5.30;99.90;;;;;;5093290;28;20798;-59
2021/12/20 00:43:02;;;;;;;20.33;12.90;;;5.40;99.90;;;;;;5093263;28;20841;-58
2021/12/20 00:45:31;;;;;;;18.90;12.27;;;5.50;99.90;;;;;;5093218;28;20546;-58
2021/12/20 00:47:59;;;;;;;18.90;13.17;;;5.50;99.90;;;;;;5093311;28;20547;-58
2021/12/20 00:50:26;;;;;;;18.80;13.13;;;5.40;99.90;;;;;;5092873;28;20464;-58
2021/12/20 00:52:54;;;;;;;20.53;13.20;;;5.50;99.90;;;;;;5093009;28;20483;-58
2021/12/20 00:55:22;;;;;;;18.40;12.13;;;5.60;99.90;;;;;;5093271;28;20790;-58
2021/12/20 00:57:53;;;;;;;16.77;13.60;;;5.50;99.90;;;;;;5093122;28;20443;-58
2021/12/20 01:00:24;;;;;;;20.47;13.30;;;5.40;99.90;;;;;;5093032;28;20455;-59
2021/12/20 01:02:52;;;;;;;21.37;13.07;;;5.60;99.90;;;;;;5093116;28;20426;-58
2021/12/20 01:05:20;;;;;;;19.87;14.30;;;5.60;99.90;;;;;;5092744;28;20474;-58
2021/12/20 01:07:47;;;;;;;14.30;11.57;;;5.60;99.90;;;;;;5092667;28;20857;-58
2021/12/20 01:10:16;;;;;;;19.03;13.73;;;5.60;99.90;;;;;;5092817;28;20890;-58
2021/12/20 01:12:46;;;;;;;19.30;12.80;;;5.60;99.90;;;;;;5093038;28;20487;-58
2021/12/20 01:15:17;;;;;;;20.67;13.77;;;5.50;99.90;;;;;;5092587;28;20542;-59
2021/12/20 01:17:45;;;;;;;17.80;12.40;;;5.50;99.90;;;;;;5092653;28;20424;-58
2021/12/20 01:20:12;;;;;;;19.83;13.70;;;5.60;99.90;;;;;;5092613;28;20996;-59
2021/12/20 01:22:42;;;;;;;16.30;13.23;;;5.70;99.90;;;;;;5093850;28;20447;-59
2021/12/20 01:25:09;;;;;;;19.77;11.77;;;5.90;99.90;;;;;;5096933;28;20554;-58
2021/12/20 01:27:36;;;;;;;18.17;12.63;;;5.70;99.90;;;;;;5096951;28;20451;-58
2021/12/20 01:30:05;;;;;;;18.33;13.27;;;5.40;99.90;;;;;;5096528;28;20554;-58
2021/12/20 01:32:34;;;;;;;19.43;14.20;;;5.50;99.90;;;;;;5096761;28;20813;-58
2021/12/20 01:35:01;;;;;;;18.90;14.03;;;5.60;99.90;;;;;;5096646;28;20447;-58
2021/12/20 01:37:29;;;;;;;18.93;14.23;;;5.70;99.90;;;;;;5096571;28;20483;-59
2021/12/20 01:39:58;;;;;;;19.33;14.57;;;5.60;99.90;;;;;;5096292;28;20577;-58
2021/12/20 01:42:27;;;;;;;17.20;13.17;;;5.50;99.90;;;;;;5096546;28;20443;-58
2021/12/20 01:44:56;;;;;;;18.87;13.50;;;5.40;99.90;;;;;;5096462;28;20450;-58
2021/12/20 01:47:24;;;;;;;19.53;13.00;;;5.40;99.90;;;;;;5096587;28;20447;-58
2021/12/20 01:49:59;;;;;;;18.70;13.50;;;5.40;99.90;;;;;;5096590;28;20870;-58
2021/12/20 01:52:28;;;;;;;22.13;15.27;;;5.40;99.90;;;;;;5096348;28;20463;-58
2021/12/20 01:54:56;;;;;;;19.23;13.10;;;5.30;99.90;;;;;;5096195;28;20933;-59
2021/12/20 01:57:24;;;;;;;23.23;14.40;;;5.40;99.90;;;;;;5096263;28;20439;-58
2021/12/20 01:59:51;;;;;;;15.17;11.17;;;5.30;99.90;;;;;;5095956;28;20478;-58
2021/12/20 02:02:18;;;;;;;19.93;14.00;;;5.40;99.90;;;;;;5096366;28;20439;-58
2021/12/20 02:04:49;;;;;;;21.57;14.27;;;5.50;99.90;;;;;;5095877;28;20534;-58
2021/12/20 02:07:34;;;;;;;22.33;13.67;;;5.50;99.90;;;;;;5095569;28;20942;-59
2021/12/20 02:10:01;;;;;;;16.87;13.50;;;5.50;99.90;;;;;;5096109;28;20462;-58
2021/12/20 02:12:30;;;;;;;21.40;14.13;;;5.60;99.90;;;;;;5096027;28;20518;-58
2021/12/20 02:14:57;;;;;;;17.83;12.20;;;5.70;99.90;;;;;;5095763;28;20451;-59
2021/12/20 02:17:24;;;;;;;17.90;12.70;;;5.80;99.90;;;;;;5096070;28;20470;-58
2021/12/20 02:19:51;;;;;;;25.93;14.87;;;5.40;99.90;;;;;;5095914;28;20505;-58
2021/12/20 02:22:20;;;;;;;21.90;14.70;;;5.20;99.90;;;;;;5095728;28;20432;-59
2021/12/20 02:24:47;;;;;;;24.90;15.60;;;5.20;99.90;;;;;;5095541;28;20951;-58
2021/12/20 02:27:14;;;;;;;22.60;16.40;;;5.40;99.90;;;;;;5095634;28;20454;-58
2021/12/20 02:29:57;;;;;;;21.90;12.40;;;5.50;99.90;;;;;;5095767;28;20869;-58
2021/12/20 02:37:57;;;;;;;20.33;14.73;;;5.70;99.90;;;;;;5095471;28;20415;-59
2021/12/20 02:40:24;;;;;;;23.70;16.60;;;5.60;99.90;;;;;;5095232;28;20822;-58
2021/12/20 02:42:52;;;;;;;20.57;13.93;;;5.60;99.90;;;;;;5095514;28;20439;-58
2021/12/20 02:45:19;;;;;;;22.63;15.17;;;5.70;99.90;;;;;;5095319;28;20486;-58
2021/12/20 02:47:49;;;;;;;18.80;13.50;;;5.70;99.90;;;;;;5095130;28;20454;-59
2021/12/20 02:50:17;;;;;;;22.33;14.83;;;5.70;99.90;;;;;;5095063;28;21021;-59
2021/12/20 02:52:44;;;;;;;17.47;12.60;;;5.60;99.90;;;;;;5095327;28;20475;-58
2021/12/20 02:55:13;;;;;;;16.57;12.37;;;5.60;99.90;;;;;;5095009;28;20447;-58
2021/12/20 02:57:40;;;;;;;18.10;13.43;;;5.50;99.90;;;;;;5095095;28;20956;-58
2021/12/20 03:00:11;;;;;;;20.57;13.90;;;5.80;99.90;;;;;;5095116;28;20554;-58
2021/12/20 03:02:38;;;;;;;23.10;13.40;;;5.80;99.90;;;;;;5095214;28;20546;-58
2021/12/20 03:05:06;;;;;;;26.07;13.53;;;5.80;99.90;;;;;;5094856;28;20431;-58
2021/12/20 03:07:41;;;;;;;19.57;13.33;;;5.80;99.90;;;;;;5094604;28;20570;-58
2021/12/20 03:10:09;;;;;;;18.70;13.40;;;5.80;99.90;;;;;;5094903;28;20562;-58
2021/12/20 03:12:38;;;;;;;18.90;13.50;;;5.80;99.90;;;;;;5094851;28;20517;-58
2021/12/20 03:15:12;;;;;;;23.10;15.23;;;5.90;99.90;;;;;;5094890;28;20451;-58
2021/12/20 03:17:39;;;;;;;17.73;12.63;;;5.80;99.90;;;;;;5094466;28;20434;-58
2021/12/20 03:20:07;;;;;;;18.00;14.30;;;5.80;99.90;;;;;;5094495;28;20996;-59
2021/12/20 03:22:35;;;;;;;21.70;14.63;;;5.80;99.90;;;;;;5094512;28;20467;-59
2021/12/20 03:25:02;;;;;;;19.97;13.27;;;5.80;99.90;;;;;;5094719;28;20538;-58
2021/12/20 03:27:29;;;;;;;23.77;14.27;;;5.60;99.90;;;;;;5094468;28;20953;-58
2021/12/20 03:29:58;;;;;;;17.87;12.80;;;5.70;99.90;;;;;;5094247;28;20559;-58
2021/12/20 03:32:25;;;;;;;21.93;13.27;;;5.80;99.90;;;;;;5094139;28;20479;-58
2021/12/20 03:34:52;;;;;;;23.00;12.80;;;5.70;99.90;;;;;;5094342;28;20447;-58
2021/12/20 03:37:19;;;;;;;22.40;14.50;;;5.50;99.90;;;;;;5094691;28;20451;-58
2021/12/20 03:39:46;;;;;;;22.23;14.43;;;5.60;99.90;;;;;;5093950;28;20550;-58
2021/12/20 03:42:14;;;;;;;20.90;13.93;;;5.40;99.90;;;;;;5094405;28;20509;-58
2021/12/20 03:44:44;;;;;;;21.33;15.20;;;5.30;99.90;;;;;;5094020;28;20542;-58
2021/12/20 03:47:13;;;;;;;25.07;15.80;;;5.00;99.90;;;;;;5093216;28;20431;-58
2021/12/20 03:49:41;;;;;;;25.27;14.97;;;4.80;99.90;;;;;;5094291;28;20451;-58
2021/12/20 03:52:09;;;;;;;22.27;14.73;;;4.70;99.90;;;;;;5094247;28;20451;-58
2021/12/20 03:54:37;;;;;;;26.40;14.57;;;4.80;99.90;;;;;;5094168;28;20887;-58
2021/12/20 03:57:05;;;;;;;25.10;15.20;;;4.80;99.90;;;;;;5093872;28;20534;-58
2021/12/20 03:59:33;;;;;;;24.17;14.67;;;4.80;99.90;;;;;;5094110;28;20530;-58
2021/12/20 04:02:00;;;;;;;21.13;13.80;;;4.70;99.90;;;;;;5094073;28;20455;-58
2021/12/20 04:04:29;;;;;;;23.77;14.23;;;4.70;99.90;;;;;;5093949;28;20443;-58
2021/12/20 04:06:56;;;;;;;21.70;14.27;;;4.70;99.90;;;;;;5093701;28;20479;-58
2021/12/20 04:09:23;;;;;;;20.47;13.57;;;4.80;99.90;;;;;;5093821;28;20443;-59
2021/12/20 04:11:50;;;;;;;25.07;15.43;;;4.70;99.90;;;;;;5093420;28;20467;-58
2021/12/20 04:14:18;;;;;;;27.27;14.67;;;4.70;99.90;;;;;;5093431;28;20532;-58
2021/12/20 04:16:45;;;;;;;25.93;13.97;;;4.70;99.90;;;;;;5093637;28;20790;-58
2021/12/20 04:19:12;;;;;;;25.47;15.77;;;4.70;99.90;;;;;;5093213;28;20813;-58
2021/12/20 04:21:40;;;;;;;21.60;14.33;;;4.70;99.90;;;;;;5093678;28;20485;-58
2021/12/20 04:24:08;;;;;;;21.73;16.10;;;4.80;99.90;;;;;;5093356;28;20428;-58
2021/12/20 04:26:35;;;;;;;23.97;15.07;;;5.00;99.90;;;;;;5093377;28;20925;-58
2021/12/20 04:29:02;;;;;;;24.70;15.50;;;4.90;99.90;;;;;;5093488;28;20449;-58
2021/12/20 04:31:29;;;;;;;24.13;15.43;;;5.10;99.90;;;;;;5093558;28;20467;-58
2021/12/20 04:33:56;;;;;;;23.50;14.20;;;5.00;99.90;;;;;;5093149;28;20567;-58
2021/12/20 04:36:23;;;;;;;23.27;14.83;;;5.00;99.90;;;;;;5093562;28;20926;-58
2021/12/20 04:38:52;;;;;;;27.67;15.77;;;4.90;99.90;;;;;;5093427;28;20551;-59
2021/12/20 04:41:19;;;;;;;24.53;16.37;;;4.90;99.90;;;;;;5092949;28;20464;-58
2021/12/20 04:43:46;;;;;;;23.20;16.00;;;5.00;99.90;;;;;;5093246;28;20443;-58
2021/12/20 04:46:13;;;;;;;21.23;14.60;;;5.20;99.90;;;;;;5093017;28;20957;-58
2021/12/20 04:48:40;;;;;;;23.90;13.87;;;5.30;99.90;;;;;;5093235;28;20451;-58
2021/12/20 04:51:07;;;;;;;23.47;14.70;;;5.40;99.90;;;;;;5092793;28;20475;-58
2021/12/20 04:53:35;;;;;;;25.57;15.90;;;5.40;99.90;;;;;;5093100;28;20809;-58
2021/12/20 04:56:03;;;;;;;23.47;14.43;;;5.30;99.90;;;;;;5092843;28;20534;-59
2021/12/20 04:58:31;;;;;;;25.27;15.37;;;5.40;99.90;;;;;;5092375;28;20539;-58
2021/12/20 05:00:58;;;;;;;20.43;14.03;;;5.50;99.90;;;;;;5092970;28;20474;-58
2021/12/20 05:03:25;;;;;;;22.57;14.53;;;5.50;99.90;;;;;;5093022;28;20436;-58
2021/12/20 05:05:52;;;;;;;23.63;15.20;;;5.40;99.90;;;;;;5092432;28;20487;-58
2021/12/20 05:08:23;;;;;;;21.97;14.20;;;5.40;99.90;;;;;;5093165;28;20424;-58
2021/12/20 05:10:50;;;;;;;22.27;14.57;;;5.40;99.90;;;;;;5092607;28;20464;-59
2021/12/20 05:13:18;;;;;;;23.67;14.57;;;5.40;99.90;;;;;;5092706;28;20842;-58
2021/12/20 05:15:46;;;;;;;25.17;15.10;;;5.30;99.90;;;;;;5093150;28;20486;-58
2021/12/20 05:18:13;;;;;;;20.83;15.57;;;5.30;99.90;;;;;;5092999;28;20439;-58
2021/12/20 05:20:40;;;;;;;23.13;16.07;;;5.30;99.90;;;;;;5092594;28;20464;-59
2021/12/20 05:23:08;;;;;;;24.10;15.23;;;5.10;99.90;;;;;;5092825;28;20794;-59
2021/12/20 05:25:35;;;;;;;19.40;14.30;;;5.00;99.90;;;;;;5092961;28;20991;-59
2021/12/20 05:28:03;;;;;;;24.43;14.40;;;5.00;99.90;;;;;;5092886;28;20428;-58
2021/12/20 05:30:32;;;;;;;22.87;15.27;;;4.90;99.90;;;;;;5092658;28;20554;-58
2021/12/20 05:32:59;;;;;;;25.33;16.43;;;5.20;99.90;;;;;;5092775;28;20480;-58
2021/12/20 05:35:27;;;;;;;23.37;16.37;;;5.40;99.90;;;;;;5092473;28;20463;-58
2021/12/20 05:37:54;;;;;;;24.30;15.67;;;5.50;99.90;;;;;;5092342;28;20471;-58
2021/12/20 05:40:21;;;;;;;20.40;13.70;;;5.60;99.90;;;;;;5092367;28;20463;-58
2021/12/20 05:42:49;;;;;;;22.53;14.40;;;5.60;99.90;;;;;;5092736;28;20494;-58
2021/12/20 05:45:17;;;;;;;25.70;14.50;;;5.60;99.90;;;;;;5092634;28;20451;-58
2021/12/20 05:47:46;;;;;;;19.20;13.43;;;5.50;99.90;;;;;;5092448;28;20455;-58
2021/12/20 05:50:16;;;;;;;24.73;15.60;;;5.50;99.90;;;;;;5092283;28;20563;-58
2021/12/20 05:52:44;;;;;;;23.97;14.63;;;5.60;99.90;;;;;;5092654;28;20519;-59
2021/12/20 05:55:12;;;;;;;22.93;14.80;;;5.50;99.90;;;;;;5092365;28;20538;-58
2021/12/20 05:57:39;;;;;;;24.90;14.30;;;5.60;99.90;;;;;;5092369;28;21028;-58
2021/12/20 06:00:09;;;;;;;23.97;14.70;;;5.60;99.90;;;;;;5092519;28;20471;-59
2021/12/20 06:02:36;;;;;;;23.90;15.27;;;5.50;99.90;;;;;;5092876;28;20538;-59
2021/12/20 06:05:06;;;;;;;25.37;16.37;;;5.60;99.90;;;;;;5092251;28;20871;-58
2021/12/20 06:07:36;;;;;;;26.70;14.90;;;5.60;99.90;;;;;;5092023;28;20838;-58
2021/12/20 06:10:05;;;;;;;24.70;15.67;;;5.50;99.90;;;;;;5094021;28;20973;-58
2021/12/20 06:12:32;;;;;;;25.10;15.40;;;5.60;99.90;;;;;;5096419;28;20843;-58
2021/12/20 06:14:59;;;;;;;22.10;15.80;;;5.40;99.90;;;;;;5095636;28;20489;-58
2021/12/20 06:17:26;;;;;;;27.27;15.53;;;5.50;99.90;;;;;;5096001;28;20543;-58
2021/12/20 06:19:53;;;;;;;21.07;14.90;;;5.60;99.90;;;;;;5096128;28;20464;-59
2021/12/20 06:22:22;;;;;;;19.20;14.73;;;5.60;99.90;;;;;;5095611;28;20443;-58
2021/12/20 06:24:49;;;;;;;21.40;13.10;;;5.60;99.90;;;;;;5095340;28;20448;-59
2021/12/20 06:27:16;;;;;;;26.37;15.90;;;5.60;99.90;;;;;;5095800;28;20462;-58
2021/12/20 06:29:43;;;;;;;20.43;14.07;;;5.60;99.90;;;;;;5095335;28;20897;-58
2021/12/20 06:32:10;;;;;;;24.67;16.13;;;5.60;99.90;;;;;;5095197;28;20454;-58
2021/12/20 06:34:39;;;;;;;24.37;15.87;;;5.60;99.90;;;;;;5095399;28;20501;-58
2021/12/20 06:37:06;;;;;;;19.50;15.53;;;5.60;99.90;;;;;;5095216;28;20456;-58
2021/12/20 06:39:35;;;;;;;23.27;14.47;;;5.60;99.90;;;;;;5095168;28;20886;-58
2021/12/20 06:42:02;;;;;;;24.87;14.87;;;5.60;99.90;;;;;;5095191;28;20868;-59
2021/12/20 06:44:29;;;;;;;25.57;14.20;;;5.70;99.90;;;;;;5095215;28;20944;-58
2021/12/20 06:46:57;;;;;;;20.90;12.73;;;5.70;99.90;;;;;;5095333;28;20447;-58
2021/12/20 06:49:25;;;;;;;25.57;14.80;;;5.60;99.90;;;;;;5095223;28;20467;-58
2021/12/20 06:51:55;;;;;;;23.80;15.67;;;5.50;99.90;;;;;;5095455;28;20448;-58
2021/12/20 06:54:22;;;;;;;21.60;14.13;;;5.60;99.90;;;;;;5095045;28;20483;-59
2021/12/20 06:56:51;;;;;;;20.47;13.53;;;5.60;99.90;;;;;;5094939;28;20447;-58
2021/12/20 06:59:18;;;;;;;22.93;16.53;;;5.70;99.90;;;;;;5095094;28;20453;-58
2021/12/20 07:01:45;;;;;;;22.77;14.20;;;5.70;99.90;;;;;;5094510;28;20473;-59
2021/12/20 07:04:12;;;;;;;22.53;13.30;;;5.60;99.90;;;;;;5094539;28;20501;-59
2021/12/20 07:06:40;;;;;;;26.20;15.17;;;5.60;99.90;;;;;;5094746;28;20474;-58
2021/12/20 07:09:07;;;;;;;22.30;15.30;;;5.50;99.90;;;;;;5094579;28;20570;-58
2021/12/20 07:11:35;;;;;;;22.73;15.20;;;5.30;99.90;;;;;;5094491;28;20474;-58
2021/12/20 07:14:04;;;;;;;25.83;14.90;;;5.30;99.90;;;;;;5094772;28;20490;-58
2021/12/20 07:16:33;;;;;;;23.60;15.83;;;5.30;99.90;;;;;;5094526;28;20816;-58
2021/12/20 07:19:00;;;;;;;25.93;15.30;;;5.30;99.90;;;;;;5094460;28;20942;-58
2021/12/20 07:21:28;;;;;;;22.53;15.47;;;5.20;99.90;;;;;;5094254;28;20566;-58
2021/12/20 07:23:56;;;;;;;20.57;15.23;;;5.20;99.90;;;;;;5094704;28;20449;-58
2021/12/20 07:26:23;;;;;;;21.73;14.17;;;5.20;99.90;;;;;;5094488;28;20477;-58
2021/12/20 07:28:50;;;;;;;20.33;12.10;;;5.20;99.90;;;;;;5094496;28;20458;-58
2021/12/20 07:31:21;;;;;;;21.80;13.93;;;5.20;99.90;;;;;;5094448;28;20825;-58
2021/12/20 07:33:49;;;;;;;23.13;15.00;;;5.30;99.90;;;;;;5093798;28;20471;-58
2021/12/20 07:36:19;;;;;;;26.13;14.73;;;5.40;99.90;;;;;;5094203;28;20647;-58
2021/12/20 07:38:46;;;;;;;24.10;14.40;;;5.40;99.90;;;;;;5094439;28;20439;-58
2021/12/20 07:41:13;;;;;;;23.37;15.17;;;5.40;99.90;;;;;;5094215;28;20471;-58
2021/12/20 07:43:41;;;;;;;19.87;14.27;;;5.30;99.90;;;;;;5093711;28;20973;-58
2021/12/20 07:46:08;;;;;;;23.30;14.70;;;5.30;99.90;;;;;;5094044;28;20846;-58
2021/12/20 07:48:36;;;;;;;19.60;13.10;;;5.40;99.90;;;;;;5094243;28;20456;-58
2021/12/20 07:51:04;;;;;;;21.50;14.03;;;5.40;99.90;;;;;;5093803;28;20830;-58
2021/12/20 07:53:32;;;;;;;22.33;12.93;;;5.40;99.90;;;;;;5093855;28;20542;-58
2021/12/20 07:55:59;;;;;;;20.77;12.93;;;5.50;99.90;;;;;;5093950;28;20866;-58
2021/12/20 07:58:26;;;;;;;23.10;15.03;;;5.40;99.90;;;;;;5094106;28;20538;-58
2021/12/20 08:00:53;;;;;;;21.17;13.97;;;5.40;99.90;;;;;;5093950;28;20463;-58
2021/12/20 08:03:21;;;;;;;23.93;14.03;;;5.30;99.90;;;;;;5093932;28;20631;-57
2021/12/20 08:05:50;;;;;;;20.50;13.03;;;5.30;99.90;;;;;;5093551;28;20897;-58
2021/12/20 08:08:17;;;;;;;21.03;12.33;;;5.50;99.90;;;;;;5093783;28;20454;-58
2021/12/20 08:10:44;;;;;;;26.23;15.13;;;5.60;99.90;;;;;;5093593;28;20559;-58
2021/12/20 08:13:12;;;;;;;20.43;14.70;;;5.50;99.90;;;;;;5093984;28;20443;-58
2021/12/20 08:15:40;;;;;;;24.50;14.60;;;5.30;99.90;;;;;;5093365;28;20483;-58
2021/12/20 08:18:07;;;;;;;24.00;14.63;;;5.40;99.90;;;;;;5093762;28;20530;-58
2021/12/20 08:20:35;;;;;;;20.80;14.40;;;5.30;99.90;;;;;;5093423;28;20802;-58
2021/12/20 08:23:04;;;;;;;23.37;12.93;;;5.60;99.90;;;;;;5093408;28;20443;-58
2021/12/20 08:25:31;;;;;;;21.17;14.00;;;5.80;99.90;;;;;;5093094;28;20645;-58
2021/12/20 08:27:59;;;;;;;19.57;14.53;;;5.30;99.90;;;;;;5093171;28;20500;-58
2021/12/20 08:30:26;;;;;;;24.77;15.93;;;5.20;99.90;;;;;;5093309;28;20554;-58
2021/12/20 08:32:54;;;;;;;23.87;14.50;;;5.40;99.90;;;;;;5092707;28;20470;-57
2021/12/20 08:35:21;;;;;;;23.37;16.20;;;5.60;99.90;;;;;;5092590;28;20562;-57
2021/12/20 08:37:49;;;;;;;23.33;15.57;;;5.60;99.90;;;;;;5093238;28;20436;-58
2021/12/20 08:40:18;;;;;;;23.83;15.30;;;;;;;;;;5093010;28;20969;-58
2021/12/20 08:42:46;;;;;;;19.87;13.40;;;6.00;99.90;;;;;;5093308;28;20443;-58
2021/12/20 08:45:15;;;;;;;20.20;13.83;;;6.00;99.90;;;;;;5093168;28;20949;-58
2021/12/20 08:47:43;;;;;;;22.90;13.63;;;6.00;99.90;;;;;;5093007;28;20550;-58
2021/12/20 08:50:13;;;;;;;26.77;14.60;;;5.90;99.90;;;;;;5092978;28;20912;-58
2021/12/20 08:52:40;;;;;;;24.43;14.77;;;5.80;99.90;;;;;;5092982;28;20788;-58
2021/12/20 08:55:09;;;;;;;26.30;14.97;;;5.90;99.90;;;;;;5092889;28;20479;-58
2021/12/20 08:57:39;;;;;;;23.90;15.40;;;5.80;99.90;;;;;;5092697;28;20451;-58
2021/12/20 09:00:10;;;;;;;26.00;15.30;;;5.80;99.90;;;;;;5092815;28;20473;-58
2021/12/20 09:02:38;;;;;;;26.10;16.00;;;5.90;99.90;;;;;;5092529;28;20467;-58
2021/12/20 09:05:06;;;;;;;24.83;14.57;;;5.90;99.90;;;;;;5092438;28;20439;-57
2021/12/20 09:07:34;;;;;;;22.30;15.27;;;5.90;99.90;;;;;;5092058;28;20979;-58
2021/12/20 09:10:01;;;;;;;26.53;15.17;;;6.00;99.90;;;;;;5092801;28;20559;-58
2021/12/20 09:12:28;;;;;;;29.77;15.87;;;6.00;99.90;;;;;;5092388;28;20455;-58
2021/12/20 09:14:57;;;;;;;22.53;15.80;;;5.90;99.90;;;;;;5092685;28;20483;-58
2021/12/20 09:17:24;;;;;;;24.60;14.13;;;5.80;99.90;;;;;;5092972;28;20455;-58
2021/12/20 09:19:52;;;;;;;24.03;14.77;;;5.60;99.90;;;;;;5092689;28;20471;-57
2021/12/20 09:22:19;;;;;;;23.90;14.57;;;5.40;99.90;;;;;;5092827;28;20452;-57
2021/12/20 09:24:46;;;;;;;32.97;15.90;;;5.40;99.90;;;;;;5092686;28;20475;-58
2021/12/20 09:27:13;;;;;;;20.63;14.30;;;5.30;99.90;;;;;;5092805;28;20536;-58
2021/12/20 09:29:41;;;;;;;26.97;16.40;;;5.20;99.90;;;;;;5092380;28;20450;-58
2021/12/20 09:32:10;;;;;;;21.97;15.40;;;5.20;99.90;;;;;;5092456;28;20447;-58
2021/12/20 09:34:37;;;;;;;23.13;16.23;;;5.30;99.90;;;;;;5092549;28;20486;-58
2021/12/20 09:37:07;;;;;;;25.47;15.17;;;5.30;99.90;;;;;;5092857;28;20520;-58
2021/12/20 09:39:38;;;;;;;36.00;16.70;;;5.40;99.90;;;;;;5092727;28;20483;-58
2021/12/20 09:42:06;;;;;;;25.93;15.83;;;5.50;99.90;;;;;;5092804;28;20523;-58
2021/12/20 09:44:34;;;;;;;21.80;15.53;;;5.50;99.90;;;;;;5094905;28;20530;-58
2021/12/20 09:47:03;;;;;;;25.03;16.53;;;5.60;99.90;;;;;;5096513;28;20934;-58
2021/12/20 09:49:33;;;;;;;28.40;17.60;;;5.40;99.90;;;;;;5096375;28;20922;-58
2021/12/20 09:52:00;;;;;;;28.30;17.03;;;5.50;99.90;;;;;;5096360;28;20529;-58
2021/12/20 09:54:29;;;;;;;29.10;15.50;;;5.50;99.90;;;;;;5096160;28;20988;-58
2021/12/20 09:56:59;;;;;;;26.00;17.70;;;5.50;99.90;;;;;;5096604;28;20435;-58
2021/12/20 09:59:28;;;;;;;28.33;18.07;;;5.70;99.90;;;;;;5095860;28;20978;-58
2021/12/20 10:01:56;;;;;;;26.97;16.03;;;;;;;;;;5095774;28;20447;-58
2021/12/20 10:04:23;;;;;;;23.70;14.47;;;6.00;99.90;;;;;;5096295;28;20447;-58
2021/12/20 10:06:54;;;;;;;35.70;18.63;;;6.00;99.90;;;;;;5095591;28;20483;-58
2021/12/20 10:09:26;;;;;;;31.83;18.83;;;6.20;99.90;;;;;;5095727;28;20450;-58
2021/12/20 10:12:12;;;;;;;30.53;16.27;;;6.00;99.90;;;;;;5096374;28;20434;-58
2021/12/20 10:14:55;;;;;;;26.47;17.27;;;6.00;99.90;;;;;;5095506;28;20475;-58
2021/12/20 10:17:28;;;;;;;24.87;16.40;;;6.10;99.90;;;;;;5096134;28;20446;-58
2021/12/20 10:19:56;;;;;;;28.03;17.27;;;6.20;99.90;;;;;;5096118;28;20465;-58
2021/12/20 10:22:28;;;;;;;26.43;17.43;;;6.30;99.90;;;;;;5095456;28;20449;-58
2021/12/20 10:24:57;;;;;;;28.50;17.30;;;6.20;99.90;;;;;;5095487;28;20518;-58
2021/12/20 10:27:32;;;;;;;24.73;16.13;;;6.20;99.90;;;;;;5095943;28;20451;-58
2021/12/20 10:30:01;;;;;;;29.40;16.70;;;6.00;99.90;;;;;;5095663;28;20498;-58
2021/12/20 10:32:41;;;;;;;24.23;16.70;;;5.90;99.90;;;;;;5094966;28;20504;-58
2021/12/20 10:35:40;;;;;;;26.73;17.30;;;5.90;99.90;;;;;;5094948;28;20479;-58
2021/12/20 10:38:22;;;;;;;28.23;17.20;;;6.00;99.90;;;;;;5032776;28;20799;-58
2021/12/20 10:40:52;;;;;;;25.00;13.83;;;6.20;99.90;;;;;;5087364;28;21000;-58
2021/12/20 10:43:22;;;;;;;22.90;15.73;;;6.80;99.90;;;;;;5094985;28;20846;-58
2021/12/20 10:45:50;;;;;;;20.30;14.83;;;7.70;99.90;;;;;;5095612;28;20562;-58
2021/12/20 10:48:18;;;;;;;19.13;14.30;;;8.40;99.90;;;;;;5095093;28;21025;-58
2021/12/20 10:50:45;;;;;;;22.07;15.20;;;8.90;99.90;;;;;;5094985;28;20996;-58
2021/12/20 10:53:21;;;;;;;15.70;12.40;;;8.60;99.90;;;;;;5095233;28;20447;-58
2021/12/20 10:55:50;;;;;;;17.30;12.50;;;8.10;99.90;;;;;;5094635;28;20463;-58
2021/12/20 10:58:31;;;;;;;17.97;11.67;;;7.80;99.90;;;;;;5094947;28;20957;-58
2021/12/20 11:01:21;;;;;;;18.80;11.87;;;7.80;99.90;;;;;;5095139;28;20463;-58
2021/12/20 11:04:07;;;;;;;22.57;10.77;;;7.90;99.90;;;;;;5095414;28;20454;-58
2021/12/20 11:06:59;;;;;;;15.23;10.30;;;7.40;99.90;;;;;;5094639;28;20473;-58
2021/12/20 11:09:30;;;;;;;16.07;9.80;;;6.80;99.90;;;;;;5095138;28;20443;-58
2021/12/20 11:11:59;;;;;;;19.63;11.33;;;6.60;99.90;;;;;;5094962;28;20427;-58
2021/12/20 11:14:30;;;;;;;14.27;10.20;;;6.50;99.90;;;;;;5094772;28;20922;-58
2021/12/20 11:16:58;;;;;;;14.47;8.70;;;6.50;99.90;;;;;;5094748;28;20554;-57
2021/12/20 11:19:28;;;;;;;18.40;10.20;;;6.40;99.90;;;;;;5094600;28;20456;-58
2021/12/20 11:22:04;;;;;;;14.03;9.20;;;;;;;;;;5094601;28;20424;-58
2021/12/20 11:24:40;;;;;;;13.23;8.20;;;7.70;99.90;;;;;;5094358;28;20424;-58
2021/12/20 11:27:10;;;;;;;13.37;10.83;;;8.40;99.90;;;;;;5094617;28;20438;-58
2021/12/20 11:29:39;;;;;;;19.63;11.70;;;8.20;99.90;;;;;;5094899;28;20427;-58
2021/12/20 11:32:07;;;;;;;14.00;10.70;;;7.80;99.90;;;;;;5094360;28;20534;-58
2021/12/20 11:34:37;;;;;;;16.23;10.90;;;7.70;99.90;;;;;;5094113;28;20879;-58
2021/12/20 11:37:04;;;;;;;16.20;9.50;;;7.50;99.90;;;;;;5094789;28;20550;-58
2021/12/20 11:39:33;;;;;;;14.57;9.57;;;7.40;99.90;;;;;;5094421;28;20439;-58
2021/12/20 11:42:00;;;;;;;13.03;9.77;;;7.40;99.90;;;;;;5094318;28;20482;-58
2021/12/20 11:44:30;;;;;;;17.20;10.73;;;8.00;99.90;;;;;;5094399;28;20483;-58
2021/12/20 11:47:07;;;;;;;15.03;9.97;;;8.50;99.90;;;;;;5094032;28;20849;-58
2021/12/20 11:49:35;;;;;;;18.60;10.13;;;8.70;99.90;;;;;;5093976;28;20440;-58
2021/12/20 11:52:07;;;;;;;17.27;10.90;;;8.60;99.90;;;;;;5094092;28;20470;-58
2021/12/20 11:54:44;;;;;;;20.53;11.07;;;8.80;99.90;;;;;;5094284;28;20428;-58
2021/12/20 11:57:33;;;;;;;18.30;11.50;;;8.60;99.90;;;;;;5094461;28;20427;-59
2021/12/20 12:00:05;;;;;;;27.27;12.13;;;8.20;99.90;;;;;;5093859;28;21029;-58
2021/12/20 12:02:34;;;;;;;16.73;11.87;;;7.90;99.90;;;;;;5094079;28;20473;-59
2021/12/20 12:05:05;;;;;;;18.30;11.90;;;7.60;99.90;;;;;;5093346;28;20450;-58
2021/12/20 12:07:35;;;;;;;12.70;9.80;;;7.20;99.90;;;;;;5092543;28;20574;-58
2021/12/20 12:10:07;;;;;;;19.03;11.37;;;7.00;99.90;;;;;;5094067;28;20467;-58
2021/12/20 12:12:40;;;;;;;19.87;11.60;;;6.70;99.90;;;;;;5093728;28;20428;-58
2021/12/20 12:15:10;;;;;;;13.97;9.50;;;6.70;99.90;;;;;;5093438;28;20468;-58
2021/12/20 12:17:51;;;;;;;16.57;11.77;;;6.80;99.90;;;;;;5093841;28;20933;-59
2021/12/20 12:20:42;;;;;;;16.77;11.00;;;7.00;99.90;;;;;;5093694;28;20491;-58
2021/12/20 12:23:11;;;;;;;21.93;12.70;;;6.90;99.90;;;;;;5093284;28;20448;-58
2021/12/20 12:25:44;;;;;;;17.10;10.87;;;6.90;99.90;;;;;;5093378;28;20888;-59
2021/12/20 12:28:13;;;;;;;21.17;13.03;;;6.70;99.90;;;;;;5093691;28;20767;-59
2021/12/20 12:30:43;;;;;;;20.33;11.60;;;6.70;99.90;;;;;;5093346;28;20478;-59
2021/12/20 12:33:39;;;;;;;17.40;11.50;;;6.70;99.90;;;;;;5093438;28;20550;-58
2021/12/20 12:36:28;;;;;;;18.30;12.53;;;6.70;99.90;;;;;;5093194;28;20494;-58
2021/12/20 12:39:02;;;;;;;14.60;9.90;;;6.90;99.90;;;;;;5093331;28;20423;-58
2021/12/20 12:41:32;;;;;;;14.00;9.53;;;6.80;99.90;;;;;;5093350;28;20546;-58
2021/12/20 12:44:06;;;;;;;12.20;8.80;;;6.70;99.90;;;;;;5092889;28;20448;-58
2021/12/20 12:46:51;;;;;;;13.10;10.00;;;6.50;99.90;;;;;;5093063;28;20483;-58
2021/12/20 12:49:42;;;;;;;18.80;9.33;;;6.50;99.90;;;;;;5092999;28;20428;-58
2021/12/20 12:52:29;;;;;;;16.50;10.27;;;6.50;99.90;;;;;;5093265;28;20432;-59
2021/12/20 12:54:58;;;;;;;19.40;10.10;;;6.60;99.90;;;;;;5093214;28;20503;-59
2021/12/20 12:57:35;;;;;;;17.57;10.00;;;6.50;99.90;;;;;;5092910;28;20746;-59